createdAt,value
2022-09-20T18:20:43.355Z,1.07
2022-09-20T18:23:10.053Z,0.90
2022-09-20T18:25:56.591Z,0.80
2022-09-20T18:28:23.279Z,1.10
2022-09-20T18:31:00.197Z,0.70
2022-09-20T18:33:26.837Z,0.97
2022-09-20T18:35:59.399Z,0.90
2022-09-20T18:38:26.021Z,1.00
2022-09-20T18:41:00.902Z,0.90
2022-09-20T18:43:29.976Z,0.80
2022-09-20T18:45:57.714Z,0.70
2022-09-20T18:48:28.108Z,0.70
2022-09-20T18:51:03.175Z,0.83
2022-09-20T18:53:32.475Z,0.80
2022-09-20T18:56:22.955Z,0.80
2022-09-20T18:58:55.414Z,1.10
2022-09-20T19:01:28.158Z,0.90
2022-09-20T19:04:01.837Z,0.77
2022-09-20T19:06:33.519Z,0.80
2022-09-20T19:09:06.531Z,0.60
2022-09-20T19:11:38.607Z,0.80
2022-09-20T19:14:28.640Z,0.80
2022-09-20T19:17:00.251Z,0.60
2022-09-20T19:19:59.333Z,0.60
2022-09-20T19:22:57.142Z,0.80
2022-09-20T19:25:39.360Z,0.67
2022-09-20T19:28:07.533Z,0.70
2022-09-20T19:30:34.567Z,0.60
2022-09-20T19:33:02.811Z,0.80
2022-09-20T19:35:34.780Z,0.50
2022-09-20T19:39:00.129Z,0.60
2022-09-20T19:41:49.066Z,0.60
2022-09-20T19:44:36.162Z,0.57
2022-09-20T19:47:19.651Z,0.50
2022-09-20T19:49:56.736Z,0.50
2022-09-20T19:52:24.173Z,0.70
2022-09-20T19:54:51.581Z,0.67
2022-09-20T19:57:33.746Z,0.83
2022-09-20T20:00:00.605Z,0.63
2022-09-20T20:02:27.360Z,0.60
2022-09-20T20:04:54.114Z,0.50
2022-09-20T20:07:32.143Z,0.60
2022-09-20T20:10:19.046Z,0.57
2022-09-20T20:13:03.381Z,0.60
2022-09-20T20:15:47.341Z,0.50
2022-09-20T20:18:21.036Z,0.50
2022-09-20T20:20:52.566Z,0.60
2022-09-20T20:23:40.573Z,0.43
2022-09-20T20:26:20.803Z,0.50
2022-09-20T20:28:47.753Z,0.50
2022-09-20T20:31:14.797Z,0.50
2022-09-20T20:33:41.439Z,0.50
2022-09-20T20:36:08.974Z,0.50
2022-09-20T20:38:39.362Z,0.50
2022-09-20T20:41:09.923Z,0.50
2022-09-20T20:43:39.309Z,0.50
2022-09-20T20:46:07.904Z,0.40
2022-09-20T20:48:35.615Z,0.50
2022-09-20T20:51:04.531Z,0.60
2022-09-20T20:53:32.928Z,0.50
2022-09-20T20:56:01.513Z,0.60
2022-09-20T20:58:34.654Z,0.50
2022-09-20T21:01:08.722Z,0.50
2022-09-20T21:03:35.521Z,0.50
2022-09-20T21:06:04.458Z,0.50
2022-09-20T21:08:35.859Z,0.40
2022-09-20T21:11:05.798Z,0.50
2022-09-20T21:13:32.959Z,0.50
2022-09-20T21:16:20.715Z,0.60
2022-09-20T21:18:48.329Z,0.50
2022-09-20T21:21:14.874Z,0.70
2022-09-20T21:23:41.501Z,0.40
2022-09-20T21:26:10.828Z,0.60
2022-09-20T21:28:40.367Z,0.40
2022-09-20T21:31:08.577Z,0.50
2022-09-20T21:33:37.661Z,0.70
2022-09-20T21:36:05.162Z,0.50
2022-09-20T21:38:34.566Z,0.57
2022-09-20T21:41:23.871Z,0.53
2022-09-20T21:43:55.442Z,0.53
2022-09-20T21:46:25.329Z,0.60
2022-09-20T21:48:51.939Z,0.57
2022-09-20T21:51:20.358Z,0.60
2022-09-20T21:53:48.315Z,0.53
2022-09-20T21:56:17.516Z,0.50
2022-09-20T21:58:45.926Z,0.40
2022-09-20T22:01:14.890Z,0.60
2022-09-20T22:03:52.532Z,0.67
2022-09-20T22:06:24.253Z,0.70
2022-09-20T22:08:53.161Z,0.60
2022-09-20T22:11:20.886Z,0.60
2022-09-20T22:13:49.183Z,0.70
2022-09-20T22:16:18.966Z,0.70
2022-09-20T22:18:46.850Z,0.70
2022-09-20T22:21:21.332Z,0.60
2022-09-20T22:24:00.809Z,0.80
2022-09-20T22:26:30.465Z,0.60
2022-09-20T22:28:57.506Z,0.70
2022-09-20T22:31:26.438Z,0.70
2022-09-20T22:33:55.967Z,0.80
2022-09-20T22:36:30.825Z,0.80
2022-09-20T22:38:57.546Z,0.80
2022-09-20T22:41:24.297Z,0.80
2022-09-20T22:43:50.874Z,0.77
2022-09-20T22:46:22.929Z,0.80
2022-09-20T22:48:49.689Z,0.70
2022-09-20T22:51:24.573Z,0.80
2022-09-20T22:53:52.701Z,0.80
2022-09-20T22:56:21.608Z,0.90
2022-09-20T22:58:49.974Z,0.97
2022-09-20T23:01:24.489Z,0.80
2022-09-20T23:04:06.066Z,0.90
2022-09-20T23:06:54.969Z,0.90
2022-09-20T23:09:23.971Z,0.87
2022-09-20T23:11:50.821Z,0.90
2022-09-20T23:14:19.458Z,0.93
2022-09-20T23:16:46.892Z,0.93
2022-09-20T23:19:14.491Z,0.90
2022-09-20T23:21:42.557Z,0.80
2022-09-20T23:24:11.112Z,1.00
2022-09-20T23:26:39.215Z,1.00
2022-09-20T23:29:08.154Z,1.00
2022-09-20T23:31:37.089Z,1.10
2022-09-20T23:34:05.910Z,0.90
2022-09-20T23:36:34.576Z,0.93
2022-09-20T23:39:01.143Z,1.00
2022-09-20T23:41:28.337Z,1.00
2022-09-20T23:43:55.232Z,0.97
2022-09-20T23:46:23.143Z,1.20
2022-09-20T23:48:52.612Z,0.80
2022-09-20T23:51:22.683Z,1.00
2022-09-20T23:53:49.849Z,1.07
2022-09-20T23:56:16.747Z,1.20
2022-09-20T23:58:44.270Z,1.10
